sensor_id;sensor_type;location;lat;lon;timestamp;P1;durP1;ratioP1;P2;durP2;ratioP2
75787;SDS011;64406;50.024;14.492;2023-02-21T00:02:17;3.22;;;2.00;;
75787;SDS011;64406;50.024;14.492;2023-02-21T00:05:01;4.63;;;2.10;;
75787;SDS011;64406;50.024;14.492;2023-02-21T00:07:45;5.40;;;2.38;;
75787;SDS011;64406;50.024;14.492;2023-02-21T00:10:29;5.43;;;2.10;;
75787;SDS011;64406;50.024;14.492;2023-02-21T00:13:14;7.35;;;2.35;;
75787;SDS011;64406;50.024;14.492;2023-02-21T00:18:42;7.85;;;2.70;;
75787;SDS011;64406;50.024;14.492;2023-02-21T00:21:27;5.72;;;2.33;;
75787;SDS011;64406;50.024;14.492;2023-02-21T00:24:16;4.38;;;2.55;;
75787;SDS011;64406;50.024;14.492;2023-02-21T00:27:02;6.55;;;3.00;;
75787;SDS011;64406;50.024;14.492;2023-02-21T00:29:47;8.05;;;2.65;;
75787;SDS011;64406;50.024;14.492;2023-02-21T00:32:32;4.68;;;2.25;;
75787;SDS011;64406;50.024;14.492;2023-02-21T00:35:16;6.80;;;3.05;;
75787;SDS011;64406;50.024;14.492;2023-02-21T00:38:00;3.58;;;2.38;;
75787;SDS011;64406;50.024;14.492;2023-02-21T00:40:45;5.55;;;2.38;;
75787;SDS011;64406;50.024;14.492;2023-02-21T00:43:29;4.32;;;2.47;;
75787;SDS011;64406;50.024;14.492;2023-02-21T00:46:15;4.78;;;2.60;;
75787;SDS011;64406;50.024;14.492;2023-02-21T00:49:00;6.43;;;2.67;;
75787;SDS011;64406;50.024;14.492;2023-02-21T00:51:44;5.55;;;2.75;;
75787;SDS011;64406;50.024;14.492;2023-02-21T00:57:13;4.95;;;2.03;;
75787;SDS011;64406;50.024;14.492;2023-02-21T00:59:57;3.30;;;2.22;;
75787;SDS011;64406;50.024;14.492;2023-02-21T01:02:42;5.88;;;2.45;;
75787;SDS011;64406;50.024;14.492;2023-02-21T01:05:27;4.43;;;2.45;;
75787;SDS011;64406;50.024;14.492;2023-02-21T01:08:11;6.78;;;2.58;;
75787;SDS011;64406;50.024;14.492;2023-02-21T01:10:56;6.82;;;2.90;;
75787;SDS011;64406;50.024;14.492;2023-02-21T01:13:40;5.38;;;2.30;;
75787;SDS011;64406;50.024;14.492;2023-02-21T01:16:26;6.63;;;2.88;;
75787;SDS011;64406;50.024;14.492;2023-02-21T01:19:12;5.10;;;2.33;;
75787;SDS011;64406;50.024;14.492;2023-02-21T01:21:56;5.55;;;2.72;;
75787;SDS011;64406;50.024;14.492;2023-02-21T01:27:24;4.75;;;2.40;;
75787;SDS011;64406;50.024;14.492;2023-02-21T01:30:08;5.47;;;2.67;;
75787;SDS011;64406;50.024;14.492;2023-02-21T01:32:52;8.48;;;2.90;;
75787;SDS011;64406;50.024;14.492;2023-02-21T01:35:36;6.32;;;2.78;;
75787;SDS011;64406;50.024;14.492;2023-02-21T01:38:20;4.53;;;2.35;;
75787;SDS011;64406;50.024;14.492;2023-02-21T01:44:28;3.90;;;2.13;;
75787;SDS011;64406;50.024;14.492;2023-02-21T01:47:11;4.20;;;2.33;;
75787;SDS011;64406;50.024;14.492;2023-02-21T01:49:56;5.40;;;2.70;;
75787;SDS011;64406;50.024;14.492;2023-02-21T01:52:42;8.13;;;2.72;;
75787;SDS011;64406;50.024;14.492;2023-02-21T01:55:27;9.20;;;3.15;;
75787;SDS011;64406;50.024;14.492;2023-02-21T01:58:12;8.70;;;3.15;;
75787;SDS011;64406;50.024;14.492;2023-02-21T02:00:56;5.38;;;2.80;;
75787;SDS011;64406;50.024;14.492;2023-02-21T02:06:25;9.27;;;2.63;;
75787;SDS011;64406;50.024;14.492;2023-02-21T02:09:19;4.30;;;2.50;;
75787;SDS011;64406;50.024;14.492;2023-02-21T02:13:09;3.53;;;2.50;;
75787;SDS011;64406;50.024;14.492;2023-02-21T02:15:11;10.73;;;3.00;;
75787;SDS011;64406;50.024;14.492;2023-02-21T02:17:56;5.15;;;2.25;;
75787;SDS011;64406;50.024;14.492;2023-02-21T02:20:38;12.60;;;2.85;;
75787;SDS011;64406;50.024;14.492;2023-02-21T02:23:28;4.45;;;2.50;;
75787;SDS011;64406;50.024;14.492;2023-02-21T02:29:17;3.53;;;2.43;;
75787;SDS011;64406;50.024;14.492;2023-02-21T02:32:14;6.07;;;2.63;;
75787;SDS011;64406;50.024;14.492;2023-02-21T02:34:52;4.50;;;2.55;;
75787;SDS011;64406;50.024;14.492;2023-02-21T02:37:49;6.60;;;3.08;;
75787;SDS011;64406;50.024;14.492;2023-02-21T02:46:06;4.05;;;2.33;;
75787;SDS011;64406;50.024;14.492;2023-02-21T02:48:40;6.65;;;2.83;;
75787;SDS011;64406;50.024;14.492;2023-02-21T02:51:10;8.00;;;2.80;;
75787;SDS011;64406;50.024;14.492;2023-02-21T02:53:38;6.45;;;2.90;;
75787;SDS011;64406;50.024;14.492;2023-02-21T02:56:05;6.25;;;2.95;;
75787;SDS011;64406;50.024;14.492;2023-02-21T02:58:36;7.22;;;2.38;;
75787;SDS011;64406;50.024;14.492;2023-02-21T03:07:16;6.95;;;3.25;;
75787;SDS011;64406;50.024;14.492;2023-02-21T03:09:54;9.80;;;3.20;;
75787;SDS011;64406;50.024;14.492;2023-02-21T03:15:23;8.30;;;3.38;;
75787;SDS011;64406;50.024;14.492;2023-02-21T03:18:04;7.93;;;2.97;;
75787;SDS011;64406;50.024;14.492;2023-02-21T03:20:38;6.00;;;3.03;;
75787;SDS011;64406;50.024;14.492;2023-02-21T03:23:06;10.60;;;3.35;;
75787;SDS011;64406;50.024;14.492;2023-02-21T03:25:34;5.78;;;2.22;;
75787;SDS011;64406;50.024;14.492;2023-02-21T03:28:03;4.80;;;3.13;;
75787;SDS011;64406;50.024;14.492;2023-02-21T03:30:30;6.07;;;2.45;;
75787;SDS011;64406;50.024;14.492;2023-02-21T03:32:55;9.05;;;2.97;;
75787;SDS011;64406;50.024;14.492;2023-02-21T03:35:22;4.70;;;3.05;;
75787;SDS011;64406;50.024;14.492;2023-02-21T03:37:53;5.78;;;2.65;;
75787;SDS011;64406;50.024;14.492;2023-02-21T03:40:26;9.43;;;3.60;;
75787;SDS011;64406;50.024;14.492;2023-02-21T03:42:54;6.68;;;2.90;;
75787;SDS011;64406;50.024;14.492;2023-02-21T03:45:21;8.55;;;3.30;;
75787;SDS011;64406;50.024;14.492;2023-02-21T03:47:47;13.02;;;3.75;;
75787;SDS011;64406;50.024;14.492;2023-02-21T03:50:13;7.47;;;2.85;;
75787;SDS011;64406;50.024;14.492;2023-02-21T03:52:38;6.28;;;3.03;;
75787;SDS011;64406;50.024;14.492;2023-02-21T03:55:05;13.23;;;3.38;;
75787;SDS011;64406;50.024;14.492;2023-02-21T03:57:31;4.78;;;2.65;;
75787;SDS011;64406;50.024;14.492;2023-02-21T03:59:57;8.52;;;3.38;;
75787;SDS011;64406;50.024;14.492;2023-02-21T04:02:22;5.63;;;2.50;;
75787;SDS011;64406;50.024;14.492;2023-02-21T04:04:48;11.32;;;3.08;;
75787;SDS011;64406;50.024;14.492;2023-02-21T04:07:14;5.30;;;2.58;;
75787;SDS011;64406;50.024;14.492;2023-02-21T04:09:41;5.13;;;3.03;;
75787;SDS011;64406;50.024;14.492;2023-02-21T04:12:07;6.80;;;3.03;;
75787;SDS011;64406;50.024;14.492;2023-02-21T04:14:33;6.75;;;2.78;;
75787;SDS011;64406;50.024;14.492;2023-02-21T04:16:58;5.35;;;3.00;;
75787;SDS011;64406;50.024;14.492;2023-02-21T04:19:24;5.22;;;2.65;;
75787;SDS011;64406;50.024;14.492;2023-02-21T04:21:49;4.28;;;2.63;;
75787;SDS011;64406;50.024;14.492;2023-02-21T04:24:15;5.60;;;2.42;;
75787;SDS011;64406;50.024;14.492;2023-02-21T04:26:41;6.70;;;2.65;;
75787;SDS011;64406;50.024;14.492;2023-02-21T04:29:06;7.93;;;3.17;;
75787;SDS011;64406;50.024;14.492;2023-02-21T04:31:32;8.93;;;3.17;;
75787;SDS011;64406;50.024;14.492;2023-02-21T04:33:58;5.80;;;2.42;;
75787;SDS011;64406;50.024;14.492;2023-02-21T04:36:24;6.85;;;2.97;;
75787;SDS011;64406;50.024;14.492;2023-02-21T04:38:51;4.32;;;2.53;;
75787;SDS011;64406;50.024;14.492;2023-02-21T04:41:17;5.47;;;2.75;;
75787;SDS011;64406;50.024;14.492;2023-02-21T04:43:44;4.32;;;2.33;;
75787;SDS011;64406;50.024;14.492;2023-02-21T04:46:10;5.80;;;2.72;;
75787;SDS011;64406;50.024;14.492;2023-02-21T04:48:41;3.53;;;2.53;;
75787;SDS011;64406;50.024;14.492;2023-02-21T04:51:07;3.47;;;2.20;;
75787;SDS011;64406;50.024;14.492;2023-02-21T04:53:33;5.18;;;2.40;;
75787;SDS011;64406;50.024;14.492;2023-02-21T04:55:59;4.47;;;2.50;;
75787;SDS011;64406;50.024;14.492;2023-02-21T04:58:24;5.72;;;2.63;;
75787;SDS011;64406;50.024;14.492;2023-02-21T05:00:50;3.97;;;2.45;;
75787;SDS011;64406;50.024;14.492;2023-02-21T05:03:15;6.38;;;3.15;;
75787;SDS011;64406;50.024;14.492;2023-02-21T05:05:42;6.70;;;2.55;;
75787;SDS011;64406;50.024;14.492;2023-02-21T05:08:08;4.78;;;2.88;;
75787;SDS011;64406;50.024;14.492;2023-02-21T05:10:34;4.90;;;2.08;;
75787;SDS011;64406;50.024;14.492;2023-02-21T05:13:00;5.20;;;2.50;;
75787;SDS011;64406;50.024;14.492;2023-02-21T05:15:25;7.80;;;2.60;;
75787;SDS011;64406;50.024;14.492;2023-02-21T05:17:51;4.53;;;2.10;;
75787;SDS011;64406;50.024;14.492;2023-02-21T05:20:16;3.88;;;2.22;;
75787;SDS011;64406;50.024;14.492;2023-02-21T05:22:42;4.82;;;2.38;;
75787;SDS011;64406;50.024;14.492;2023-02-21T05:25:21;6.13;;;2.60;;
75787;SDS011;64406;50.024;14.492;2023-02-21T05:27:49;3.33;;;2.28;;
75787;SDS011;64406;50.024;14.492;2023-02-21T05:30:17;5.13;;;2.40;;
75787;SDS011;64406;50.024;14.492;2023-02-21T05:32:44;6.88;;;2.28;;
75787;SDS011;64406;50.024;14.492;2023-02-21T05:35:10;2.90;;;2.17;;
75787;SDS011;64406;50.024;14.492;2023-02-21T05:37:37;4.45;;;2.55;;
75787;SDS011;64406;50.024;14.492;2023-02-21T05:40:03;6.63;;;2.40;;
75787;SDS011;64406;50.024;14.492;2023-02-21T05:42:32;3.85;;;2.20;;
75787;SDS011;64406;50.024;14.492;2023-02-21T05:44:58;4.80;;;2.13;;
75787;SDS011;64406;50.024;14.492;2023-02-21T05:47:24;4.45;;;2.45;;
75787;SDS011;64406;50.024;14.492;2023-02-21T05:49:49;4.28;;;2.10;;
75787;SDS011;64406;50.024;14.492;2023-02-21T05:52:15;3.25;;;2.03;;
75787;SDS011;64406;50.024;14.492;2023-02-21T05:54:41;4.53;;;2.58;;
75787;SDS011;64406;50.024;14.492;2023-02-21T05:57:08;4.10;;;2.25;;
75787;SDS011;64406;50.024;14.492;2023-02-21T05:59:33;3.10;;;2.28;;
75787;SDS011;64406;50.024;14.492;2023-02-21T06:01:59;9.13;;;2.45;;
75787;SDS011;64406;50.024;14.492;2023-02-21T06:04:24;3.13;;;2.13;;
75787;SDS011;64406;50.024;14.492;2023-02-21T06:06:50;5.30;;;2.20;;
75787;SDS011;64406;50.024;14.492;2023-02-21T06:09:16;4.18;;;2.10;;
75787;SDS011;64406;50.024;14.492;2023-02-21T06:11:43;3.97;;;2.53;;
75787;SDS011;64406;50.024;14.492;2023-02-21T06:14:27;4.63;;;2.15;;
75787;SDS011;64406;50.024;14.492;2023-02-21T06:16:53;4.68;;;2.20;;
75787;SDS011;64406;50.024;14.492;2023-02-21T06:19:18;2.92;;;1.90;;
75787;SDS011;64406;50.024;14.492;2023-02-21T06:21:44;4.75;;;2.10;;
75787;SDS011;64406;50.024;14.492;2023-02-21T06:24:10;4.93;;;3.42;;
75787;SDS011;64406;50.024;14.492;2023-02-21T06:26:37;3.08;;;2.00;;
75787;SDS011;64406;50.024;14.492;2023-02-21T06:29:05;3.35;;;2.00;;
75787;SDS011;64406;50.024;14.492;2023-02-21T06:31:31;4.10;;;2.10;;
75787;SDS011;64406;50.024;14.492;2023-02-21T06:33:57;5.18;;;2.03;;
75787;SDS011;64406;50.024;14.492;2023-02-21T06:36:25;3.15;;;1.90;;
75787;SDS011;64406;50.024;14.492;2023-02-21T06:38:52;5.30;;;2.10;;
75787;SDS011;64406;50.024;14.492;2023-02-21T06:41:21;6.72;;;1.88;;
75787;SDS011;64406;50.024;14.492;2023-02-21T06:43:49;4.82;;;2.22;;
75787;SDS011;64406;50.024;14.492;2023-02-21T06:46:17;5.05;;;2.15;;
75787;SDS011;64406;50.024;14.492;2023-02-21T06:48:44;5.93;;;2.30;;
75787;SDS011;64406;50.024;14.492;2023-02-21T06:51:10;4.60;;;2.22;;
75787;SDS011;64406;50.024;14.492;2023-02-21T06:53:36;4.28;;;2.38;;
75787;SDS011;64406;50.024;14.492;2023-02-21T06:56:03;2.88;;;2.10;;
75787;SDS011;64406;50.024;14.492;2023-02-21T06:58:29;5.53;;;2.33;;
75787;SDS011;64406;50.024;14.492;2023-02-21T07:00:55;4.38;;;1.92;;
75787;SDS011;64406;50.024;14.492;2023-02-21T07:03:20;4.00;;;1.90;;
75787;SDS011;64406;50.024;14.492;2023-02-21T07:05:46;4.35;;;2.13;;
75787;SDS011;64406;50.024;14.492;2023-02-21T07:08:11;4.63;;;2.20;;
75787;SDS011;64406;50.024;14.492;2023-02-21T07:10:37;6.25;;;2.40;;
75787;SDS011;64406;50.024;14.492;2023-02-21T07:13:03;3.72;;;2.50;;
75787;SDS011;64406;50.024;14.492;2023-02-21T07:15:28;2.47;;;1.85;;
75787;SDS011;64406;50.024;14.492;2023-02-21T07:17:54;4.07;;;2.55;;
75787;SDS011;64406;50.024;14.492;2023-02-21T07:20:20;3.42;;;2.17;;
75787;SDS011;64406;50.024;14.492;2023-02-21T07:22:46;2.15;;;1.75;;
75787;SDS011;64406;50.024;14.492;2023-02-21T07:25:13;4.47;;;2.13;;
75787;SDS011;64406;50.024;14.492;2023-02-21T07:27:40;5.53;;;2.08;;
75787;SDS011;64406;50.024;14.492;2023-02-21T07:30:06;5.25;;;1.75;;
75787;SDS011;64406;50.024;14.492;2023-02-21T07:32:31;2.70;;;2.05;;
75787;SDS011;64406;50.024;14.492;2023-02-21T07:34:57;6.57;;;2.22;;
75787;SDS011;64406;50.024;14.492;2023-02-21T07:37:23;3.63;;;2.38;;
75787;SDS011;64406;50.024;14.492;2023-02-21T07:39:49;3.78;;;1.75;;
75787;SDS011;64406;50.024;14.492;2023-02-21T07:42:14;6.15;;;2.53;;
75787;SDS011;64406;50.024;14.492;2023-02-21T07:44:40;4.03;;;2.00;;
75787;SDS011;64406;50.024;14.492;2023-02-21T07:47:06;4.35;;;2.03;;
75787;SDS011;64406;50.024;14.492;2023-02-21T07:49:35;3.88;;;2.10;;
75787;SDS011;64406;50.024;14.492;2023-02-21T07:52:03;3.75;;;1.95;;
75787;SDS011;64406;50.024;14.492;2023-02-21T07:54:29;5.57;;;2.40;;
75787;SDS011;64406;50.024;14.492;2023-02-21T07:56:55;6.85;;;2.45;;
75787;SDS011;64406;50.024;14.492;2023-02-21T07:59:21;3.13;;;1.45;;
75787;SDS011;64406;50.024;14.492;2023-02-21T08:01:46;2.78;;;1.77;;
75787;SDS011;64406;50.024;14.492;2023-02-21T08:04:12;4.05;;;2.00;;
75787;SDS011;64406;50.024;14.492;2023-02-21T08:06:38;4.05;;;2.08;;
75787;SDS011;64406;50.024;14.492;2023-02-21T08:09:03;3.33;;;2.33;;
75787;SDS011;64406;50.024;14.492;2023-02-21T08:11:30;5.40;;;2.25;;
75787;SDS011;64406;50.024;14.492;2023-02-21T08:13:58;4.22;;;2.20;;
75787;SDS011;64406;50.024;14.492;2023-02-21T08:16:23;9.00;;;2.53;;
75787;SDS011;64406;50.024;14.492;2023-02-21T08:18:49;3.00;;;1.88;;
75787;SDS011;64406;50.024;14.492;2023-02-21T08:21:15;6.00;;;2.42;;
75787;SDS011;64406;50.024;14.492;2023-02-21T08:23:41;3.35;;;2.30;;
75787;SDS011;64406;50.024;14.492;2023-02-21T08:26:07;7.22;;;2.67;;
75787;SDS011;64406;50.024;14.492;2023-02-21T08:28:32;3.08;;;2.08;;
75787;SDS011;64406;50.024;14.492;2023-02-21T08:30:58;3.80;;;2.58;;
75787;SDS011;64406;50.024;14.492;2023-02-21T08:33:24;3.22;;;2.10;;
75787;SDS011;64406;50.024;14.492;2023-02-21T08:35:49;6.15;;;2.25;;
75787;SDS011;64406;50.024;14.492;2023-02-21T08:38:16;3.58;;;2.15;;
75787;SDS011;64406;50.024;14.492;2023-02-21T08:40:43;8.63;;;2.47;;
75787;SDS011;64406;50.024;14.492;2023-02-21T08:43:09;4.68;;;2.20;;
75787;SDS011;64406;50.024;14.492;2023-02-21T08:45:35;4.60;;;3.05;;
75787;SDS011;64406;50.024;14.492;2023-02-21T08:48:01;4.72;;;2.22;;
75787;SDS011;64406;50.024;14.492;2023-02-21T08:50:28;3.08;;;2.17;;
75787;SDS011;64406;50.024;14.492;2023-02-21T08:52:55;4.55;;;2.38;;
75787;SDS011;64406;50.024;14.492;2023-02-21T08:55:21;5.53;;;2.65;;
75787;SDS011;64406;50.024;14.492;2023-02-21T08:57:48;4.78;;;2.60;;
75787;SDS011;64406;50.024;14.492;2023-02-21T09:00:15;4.60;;;2.30;;
75787;SDS011;64406;50.024;14.492;2023-02-21T09:02:42;4.32;;;2.17;;
75787;SDS011;64406;50.024;14.492;2023-02-21T09:05:08;3.50;;;2.20;;
75787;SDS011;64406;50.024;14.492;2023-02-21T09:07:43;5.45;;;2.58;;
75787;SDS011;64406;50.024;14.492;2023-02-21T09:10:12;3.90;;;2.13;;
75787;SDS011;64406;50.024;14.492;2023-02-21T09:12:38;4.50;;;1.73;;
75787;SDS011;64406;50.024;14.492;2023-02-21T09:15:04;4.25;;;2.10;;
75787;SDS011;64406;50.024;14.492;2023-02-21T09:17:32;8.05;;;2.70;;
75787;SDS011;64406;50.024;14.492;2023-02-21T09:19:59;4.40;;;2.13;;
75787;SDS011;64406;50.024;14.492;2023-02-21T09:22:26;6.28;;;2.53;;
75787;SDS011;64406;50.024;14.492;2023-02-21T09:24:52;3.78;;;1.85;;
75787;SDS011;64406;50.024;14.492;2023-02-21T09:27:19;4.00;;;2.17;;
75787;SDS011;64406;50.024;14.492;2023-02-21T09:29:44;4.10;;;2.08;;
75787;SDS011;64406;50.024;14.492;2023-02-21T09:32:11;3.95;;;2.17;;
75787;SDS011;64406;50.024;14.492;2023-02-21T09:34:37;4.90;;;2.67;;
75787;SDS011;64406;50.024;14.492;2023-02-21T09:37:04;4.88;;;2.20;;
75787;SDS011;64406;50.024;14.492;2023-02-21T09:39:30;3.25;;;2.20;;
75787;SDS011;64406;50.024;14.492;2023-02-21T09:41:55;5.38;;;2.25;;
75787;SDS011;64406;50.024;14.492;2023-02-21T09:44:22;4.97;;;2.45;;
75787;SDS011;64406;50.024;14.492;2023-02-21T09:46:55;4.13;;;2.80;;
75787;SDS011;64406;50.024;14.492;2023-02-21T09:49:31;4.82;;;2.33;;
75787;SDS011;64406;50.024;14.492;2023-02-21T09:52:02;7.25;;;2.60;;
75787;SDS011;64406;50.024;14.492;2023-02-21T09:54:33;7.53;;;2.30;;
75787;SDS011;64406;50.024;14.492;2023-02-21T09:57:03;6.20;;;2.33;;
75787;SDS011;64406;50.024;14.492;2023-02-21T09:59:30;5.03;;;1.80;;
75787;SDS011;64406;50.024;14.492;2023-02-21T10:04:56;3.95;;;2.25;;
75787;SDS011;64406;50.024;14.492;2023-02-21T10:10:24;4.82;;;2.33;;
75787;SDS011;64406;50.024;14.492;2023-02-21T10:13:03;6.28;;;2.20;;
75787;SDS011;64406;50.024;14.492;2023-02-21T10:21:23;3.63;;;2.03;;
75787;SDS011;64406;50.024;14.492;2023-02-21T10:23:55;4.25;;;2.03;;
75787;SDS011;64406;50.024;14.492;2023-02-21T10:26:29;3.17;;;1.80;;
75787;SDS011;64406;50.024;14.492;2023-02-21T10:29:00;5.57;;;2.20;;
75787;SDS011;64406;50.024;14.492;2023-02-21T10:33:57;3.45;;;1.90;;
75787;SDS011;64406;50.024;14.492;2023-02-21T10:36:24;4.20;;;2.50;;
75787;SDS011;64406;50.024;14.492;2023-02-21T10:38:57;3.70;;;1.85;;
75787;SDS011;64406;50.024;14.492;2023-02-21T10:41:43;4.85;;;2.08;;
75787;SDS011;64406;50.024;14.492;2023-02-21T10:46:54;3.88;;;2.08;;
75787;SDS011;64406;50.024;14.492;2023-02-21T10:52:10;3.42;;;2.38;;
75787;SDS011;64406;50.024;14.492;2023-02-21T10:54:38;5.45;;;2.42;;
75787;SDS011;64406;50.024;14.492;2023-02-21T10:57:09;7.20;;;2.80;;
75787;SDS011;64406;50.024;14.492;2023-02-21T10:59:40;5.03;;;2.30;;
75787;SDS011;64406;50.024;14.492;2023-02-21T11:05:08;3.25;;;2.30;;
75787;SDS011;64406;50.024;14.492;2023-02-21T11:07:40;3.42;;;1.88;;
75787;SDS011;64406;50.024;14.492;2023-02-21T11:10:27;4.85;;;2.22;;
75787;SDS011;64406;50.024;14.492;2023-02-21T11:13:16;4.78;;;1.92;;
75787;SDS011;64406;50.024;14.492;2023-02-21T11:15:44;2.88;;;2.08;;
75787;SDS011;64406;50.024;14.492;2023-02-21T11:18:17;5.05;;;2.22;;
75787;SDS011;64406;50.024;14.492;2023-02-21T11:20:47;5.25;;;2.30;;
75787;SDS011;64406;50.024;14.492;2023-02-21T11:23:26;3.80;;;2.28;;
75787;SDS011;64406;50.024;14.492;2023-02-21T11:25:58;6.20;;;2.33;;
75787;SDS011;64406;50.024;14.492;2023-02-21T11:28:37;6.50;;;2.30;;
75787;SDS011;64406;50.024;14.492;2023-02-21T11:31:06;7.25;;;2.20;;
75787;SDS011;64406;50.024;14.492;2023-02-21T11:33:38;4.43;;;2.60;;
75787;SDS011;64406;50.024;14.492;2023-02-21T11:36:38;4.07;;;2.38;;
75787;SDS011;64406;50.024;14.492;2023-02-21T11:39:17;4.45;;;2.17;;
75787;SDS011;64406;50.024;14.492;2023-02-21T11:41:56;4.00;;;2.40;;
75787;SDS011;64406;50.024;14.492;2023-02-21T11:44:34;3.78;;;2.17;;
75787;SDS011;64406;50.024;14.492;2023-02-21T11:53:06;3.20;;;2.03;;
75787;SDS011;64406;50.024;14.492;2023-02-21T11:55:46;6.10;;;2.08;;
75787;SDS011;64406;50.024;14.492;2023-02-21T11:58:40;3.15;;;2.15;;
75787;SDS011;64406;50.024;14.492;2023-02-21T12:01:16;3.17;;;2.00;;
75787;SDS011;64406;50.024;14.492;2023-02-21T12:09:52;3.95;;;2.08;;
75787;SDS011;64406;50.024;14.492;2023-02-21T12:14:54;4.20;;;2.08;;
75787;SDS011;64406;50.024;14.492;2023-02-21T12:25:29;5.40;;;3.03;;
75787;SDS011;64406;50.024;14.492;2023-02-21T12:31:09;4.90;;;2.70;;
75787;SDS011;64406;50.024;14.492;2023-02-21T12:36:25;3.05;;;2.30;;
75787;SDS011;64406;50.024;14.492;2023-02-21T12:44:47;3.72;;;2.33;;
75787;SDS011;64406;50.024;14.492;2023-02-21T12:47:40;3.53;;;2.42;;
75787;SDS011;64406;50.024;14.492;2023-02-21T12:55:36;5.13;;;2.40;;
75787;SDS011;64406;50.024;14.492;2023-02-21T12:58:13;3.70;;;1.90;;
75787;SDS011;64406;50.024;14.492;2023-02-21T13:00:50;3.60;;;2.20;;
75787;SDS011;64406;50.024;14.492;2023-02-21T13:06:13;2.97;;;2.20;;
75787;SDS011;64406;50.024;14.492;2023-02-21T13:11:42;4.97;;;2.50;;
75787;SDS011;64406;50.024;14.492;2023-02-21T13:14:16;4.47;;;1.92;;
75787;SDS011;64406;50.024;14.492;2023-02-21T13:16:44;7.10;;;2.83;;
75787;SDS011;64406;50.024;14.492;2023-02-21T13:19:11;3.72;;;2.30;;
75787;SDS011;64406;50.024;14.492;2023-02-21T13:21:47;5.50;;;2.35;;
75787;SDS011;64406;50.024;14.492;2023-02-21T13:27:15;3.33;;;1.88;;
75787;SDS011;64406;50.024;14.492;2023-02-21T13:29:43;2.80;;;2.03;;
75787;SDS011;64406;50.024;14.492;2023-02-21T13:32:14;4.20;;;2.15;;
75787;SDS011;64406;50.024;14.492;2023-02-21T13:34:53;3.63;;;1.80;;
75787;SDS011;64406;50.024;14.492;2023-02-21T13:37:28;2.70;;;1.85;;
75787;SDS011;64406;50.024;14.492;2023-02-21T13:39:58;3.22;;;1.95;;
75787;SDS011;64406;50.024;14.492;2023-02-21T13:42:31;3.33;;;1.88;;
75787;SDS011;64406;50.024;14.492;2023-02-21T13:53:11;1.85;;;1.25;;
75787;SDS011;64406;50.024;14.492;2023-02-21T13:58:33;3.00;;;1.42;;
75787;SDS011;64406;50.024;14.492;2023-02-21T14:03:38;4.63;;;1.92;;
75787;SDS011;64406;50.024;14.492;2023-02-21T14:08:48;2.63;;;1.70;;
75787;SDS011;64406;50.024;14.492;2023-02-21T14:11:27;3.03;;;1.80;;
75787;SDS011;64406;50.024;14.492;2023-02-21T14:16:34;2.35;;;1.52;;
75787;SDS011;64406;50.024;14.492;2023-02-21T14:24:28;2.00;;;1.30;;
75787;SDS011;64406;50.024;14.492;2023-02-21T14:27:01;2.67;;;1.38;;
75787;SDS011;64406;50.024;14.492;2023-02-21T14:36:56;2.08;;;1.40;;
75787;SDS011;64406;50.024;14.492;2023-02-21T14:39:29;5.28;;;1.35;;
75787;SDS011;64406;50.024;14.492;2023-02-21T14:42:08;2.28;;;1.50;;
75787;SDS011;64406;50.024;14.492;2023-02-21T14:45:01;2.30;;;1.20;;
75787;SDS011;64406;50.024;14.492;2023-02-21T14:48:04;2.38;;;1.40;;
75787;SDS011;64406;50.024;14.492;2023-02-21T14:50:41;1.27;;;0.95;;
75787;SDS011;64406;50.024;14.492;2023-02-21T15:01:57;2.13;;;1.38;;
75787;SDS011;64406;50.024;14.492;2023-02-21T15:07:00;3.13;;;1.60;;
75787;SDS011;64406;50.024;14.492;2023-02-21T15:09:36;2.72;;;1.63;;
75787;SDS011;64406;50.024;14.492;2023-02-21T15:12:03;2.25;;;1.45;;
75787;SDS011;64406;50.024;14.492;2023-02-21T15:14:35;2.25;;;1.30;;
75787;SDS011;64406;50.024;14.492;2023-02-21T15:17:15;2.70;;;1.65;;
75787;SDS011;64406;50.024;14.492;2023-02-21T15:19:44;2.20;;;1.60;;
75787;SDS011;64406;50.024;14.492;2023-02-21T15:27:32;2.05;;;1.38;;
75787;SDS011;64406;50.024;14.492;2023-02-21T15:30:03;2.58;;;1.48;;
75787;SDS011;64406;50.024;14.492;2023-02-21T15:32:38;2.30;;;1.50;;
75787;SDS011;64406;50.024;14.492;2023-02-21T15:35:05;1.50;;;1.30;;
75787;SDS011;64406;50.024;14.492;2023-02-21T15:37:32;3.83;;;2.00;;
75787;SDS011;64406;50.024;14.492;2023-02-21T15:40:03;4.50;;;1.50;;
75787;SDS011;64406;50.024;14.492;2023-02-21T15:42:38;3.80;;;1.75;;
75787;SDS011;64406;50.024;14.492;2023-02-21T15:45:10;3.88;;;1.70;;
75787;SDS011;64406;50.024;14.492;2023-02-21T15:47:42;5.50;;;1.52;;
75787;SDS011;64406;50.024;14.492;2023-02-21T15:50:13;2.92;;;1.48;;
75787;SDS011;64406;50.024;14.492;2023-02-21T15:58:00;1.60;;;1.42;;
75787;SDS011;64406;50.024;14.492;2023-02-21T16:05:55;3.40;;;1.73;;
75787;SDS011;64406;50.024;14.492;2023-02-21T16:09:02;3.83;;;2.38;;
75787;SDS011;64406;50.024;14.492;2023-02-21T16:15:21;4.32;;;2.40;;
75787;SDS011;64406;50.024;14.492;2023-02-21T16:17:45;4.95;;;2.20;;
75787;SDS011;64406;50.024;14.492;2023-02-21T16:22:38;2.58;;;2.15;;
75787;SDS011;64406;50.024;14.492;2023-02-21T16:27:31;3.50;;;2.15;;
75787;SDS011;64406;50.024;14.492;2023-02-21T16:29:56;6.75;;;2.22;;
75787;SDS011;64406;50.024;14.492;2023-02-21T16:32:22;2.97;;;1.95;;
75787;SDS011;64406;50.024;14.492;2023-02-21T16:34:49;4.90;;;2.55;;
75787;SDS011;64406;50.024;14.492;2023-02-21T16:37:19;3.35;;;2.30;;
75787;SDS011;64406;50.024;14.492;2023-02-21T16:39:46;3.50;;;2.10;;
75787;SDS011;64406;50.024;14.492;2023-02-21T16:42:13;5.40;;;2.60;;
75787;SDS011;64406;50.024;14.492;2023-02-21T16:44:39;3.80;;;2.25;;
75787;SDS011;64406;50.024;14.492;2023-02-21T16:47:10;4.22;;;2.28;;
75787;SDS011;64406;50.024;14.492;2023-02-21T16:49:38;3.15;;;2.28;;
75787;SDS011;64406;50.024;14.492;2023-02-21T16:52:03;4.07;;;2.55;;
75787;SDS011;64406;50.024;14.492;2023-02-21T16:54:29;4.38;;;2.50;;
75787;SDS011;64406;50.024;14.492;2023-02-21T16:56:55;5.40;;;2.30;;
75787;SDS011;64406;50.024;14.492;2023-02-21T16:59:21;3.85;;;2.60;;
75787;SDS011;64406;50.024;14.492;2023-02-21T17:01:48;6.30;;;2.85;;
75787;SDS011;64406;50.024;14.492;2023-02-21T17:04:15;7.20;;;2.40;;
75787;SDS011;64406;50.024;14.492;2023-02-21T17:06:43;5.38;;;2.80;;
75787;SDS011;64406;50.024;14.492;2023-02-21T17:09:16;4.15;;;2.70;;
75787;SDS011;64406;50.024;14.492;2023-02-21T17:11:43;7.32;;;2.72;;
75787;SDS011;64406;50.024;14.492;2023-02-21T17:14:09;4.22;;;3.10;;
75787;SDS011;64406;50.024;14.492;2023-02-21T17:16:35;3.95;;;2.72;;
75787;SDS011;64406;50.024;14.492;2023-02-21T17:19:02;4.90;;;2.72;;
75787;SDS011;64406;50.024;14.492;2023-02-21T17:21:29;6.55;;;2.53;;
75787;SDS011;64406;50.024;14.492;2023-02-21T17:23:56;7.30;;;2.88;;
75787;SDS011;64406;50.024;14.492;2023-02-21T17:26:23;4.38;;;2.88;;
75787;SDS011;64406;50.024;14.492;2023-02-21T17:28:49;4.10;;;2.60;;
75787;SDS011;64406;50.024;14.492;2023-02-21T17:31:16;4.43;;;2.60;;
75787;SDS011;64406;50.024;14.492;2023-02-21T17:33:43;5.07;;;2.88;;
75787;SDS011;64406;50.024;14.492;2023-02-21T17:36:18;6.47;;;2.85;;
75787;SDS011;64406;50.024;14.492;2023-02-21T17:38:46;6.00;;;3.47;;
75787;SDS011;64406;50.024;14.492;2023-02-21T17:41:12;6.95;;;2.75;;
75787;SDS011;64406;50.024;14.492;2023-02-21T17:43:40;3.47;;;2.40;;
75787;SDS011;64406;50.024;14.492;2023-02-21T17:46:08;4.05;;;2.80;;
75787;SDS011;64406;50.024;14.492;2023-02-21T17:48:35;4.57;;;2.95;;
75787;SDS011;64406;50.024;14.492;2023-02-21T17:51:02;4.53;;;2.75;;